Time;durP1;ratioP1;P1;durP2;ratioP2;P2;SDS_P1;SDS_P2;PMS_P1;PMS_P2;Temp;Humidity;BMP_temperature;BMP_pressure;BME280_temperature;BME280_humidity;BME280_pressure;Samples;Min_cycle;Max_cycle;Signal;HPM_P1;HPM_P2
2022/01/17 00:00:00;;;;;;;2.95;1.25;;;-1.40;95.40;;;;;;5072090;28;20020;-68
2022/01/17 00:02:28;;;;;;;8.15;1.58;;;-1.40;95.50;;;;;;5071859;28;20040;-68
2022/01/17 00:04:54;;;;;;;3.08;1.30;;;-1.40;95.80;;;;;;5072010;28;20052;-68
2022/01/17 00:07:20;;;;;;;9.80;1.60;;;-1.40;95.90;;;;;;5071925;28;20662;-68
2022/01/17 00:09:46;;;;;;;3.55;1.10;;;-1.40;96.00;;;;;;5071726;28;20060;-68
2022/01/17 00:12:12;;;;;;;5.65;1.27;;;-1.50;96.00;;;;;;5071338;28;20615;-68
2022/01/17 00:14:41;;;;;;;2.40;0.88;;;-1.50;95.80;;;;;;5071770;28;20383;-68
2022/01/17 00:19:45;;;;;;;8.63;1.38;;;-1.50;95.70;;;;;;5072003;28;20028;-68
2022/01/17 00:22:13;;;;;;;1.88;1.10;;;-1.50;95.70;;;;;;5071619;28;20029;-68
2022/01/17 00:24:39;;;;;;;4.03;1.33;;;-1.50;95.60;;;;;;5071697;28;20495;-68
2022/01/17 00:27:06;;;;;;;3.03;1.38;;;-1.50;95.70;;;;;;5071726;28;20430;-68
2022/01/17 00:29:31;;;;;;;7.25;1.17;;;-1.50;95.80;;;;;;5071586;28;20399;-68
2022/01/17 00:31:58;;;;;;;5.25;1.20;;;-1.60;95.80;;;;;;5070128;28;20024;-68
2022/01/17 00:34:24;;;;;;;7.00;1.50;;;-1.60;95.70;;;;;;5071565;28;20028;-68
2022/01/17 00:36:50;;;;;;;4.55;1.40;;;-1.60;95.90;;;;;;5071290;28;20049;-68
2022/01/17 00:39:17;;;;;;;5.43;1.85;;;-1.60;96.10;;;;;;5071699;28;20105;-68
2022/01/17 00:41:43;;;;;;;3.95;1.20;;;-1.60;96.10;;;;;;5071685;28;20463;-67
2022/01/17 00:44:08;;;;;;;3.00;1.00;;;-1.60;96.20;;;;;;5071355;28;20060;-67
2022/01/17 00:46:35;;;;;;;9.35;1.35;;;-1.60;96.30;;;;;;5071618;28;20036;-67
2022/01/17 00:49:01;;;;;;;3.15;1.08;;;-1.60;96.40;;;;;;5071236;28;20028;-67
2022/01/17 00:51:27;;;;;;;7.32;1.52;;;-1.70;96.50;;;;;;5071298;28;20044;-67
2022/01/17 00:53:52;;;;;;;6.20;1.10;;;-1.70;96.50;;;;;;5071227;28;20115;-67
2022/01/17 00:56:22;;;;;;;3.95;1.30;;;-1.60;96.60;;;;;;5071317;28;20035;-67
2022/01/17 00:58:49;;;;;;;2.07;1.23;;;-1.70;96.70;;;;;;5071419;28;20040;-67
2022/01/17 01:01:15;;;;;;;4.28;1.05;;;-1.70;96.50;;;;;;5071484;28;20283;-68
2022/01/17 01:03:41;;;;;;;4.47;1.23;;;-1.70;96.70;;;;;;5071594;28;20062;-67
2022/01/17 01:06:07;;;;;;;3.78;1.17;;;-1.70;96.90;;;;;;5071300;28;20499;-68
2022/01/17 01:08:33;;;;;;;1.85;1.20;;;-1.70;97.00;;;;;;5071206;28;20356;-67
2022/01/17 01:10:59;;;;;;;7.00;1.40;;;-1.70;97.20;;;;;;5071543;28;20074;-67
2022/01/17 01:13:28;;;;;;;5.28;1.20;;;-1.70;97.30;;;;;;5071347;28;20024;-67
2022/01/17 01:29:11;;;;;;;5.20;1.35;;;-1.60;97.90;;;;;;5074488;28;20044;-67
2022/01/17 01:31:45;;;;;;;6.53;1.15;;;-1.60;97.90;;;;;;5074552;28;20020;-68
2022/01/17 01:34:12;;;;;;;6.28;1.13;;;-1.60;98.20;;;;;;5074464;28;20103;-68
2022/01/17 01:36:39;;;;;;;8.13;1.40;;;-1.60;98.20;;;;;;5074357;28;20041;-68
2022/01/17 01:39:06;;;;;;;3.67;1.20;;;-1.60;98.20;;;;;;5074444;28;20028;-67
2022/01/17 01:41:43;;;;;;;2.63;1.00;;;-1.60;98.30;;;;;;5074625;28;20031;-68
2022/01/17 01:44:21;;;;;;;2.28;1.30;;;-1.60;98.50;;;;;;5074243;28;20032;-68
2022/01/17 01:46:48;;;;;;;3.08;1.15;;;-1.60;98.80;;;;;;5074384;28;20025;-68
2022/01/17 01:49:16;;;;;;;8.65;1.27;;;-1.60;99.10;;;;;;5074295;28;20067;-67
2022/01/17 01:51:43;;;;;;;4.43;1.23;;;-1.60;99.30;;;;;;5074431;28;20063;-67
2022/01/17 01:54:09;;;;;;;3.35;1.23;;;-1.60;99.40;;;;;;5074318;28;20384;-70
2022/01/17 01:56:39;;;;;;;3.13;0.95;;;-1.60;99.60;;;;;;5074067;28;20025;-69
2022/01/17 01:59:06;;;;;;;0.75;0.75;;;-1.50;99.60;;;;;;5073999;28;20502;-69
2022/01/17 02:01:33;;;;;;;3.00;1.10;;;-1.50;99.60;;;;;;5074266;28;20021;-69
2022/01/17 02:03:58;;;;;;;2.70;1.20;;;-1.50;99.90;;;;;;5073903;28;20103;-69
2022/01/17 02:06:24;;;;;;;5.65;1.20;;;-1.50;99.90;;;;;;5074084;28;20151;-69
2022/01/17 02:08:50;;;;;;;2.97;1.00;;;-1.60;99.90;;;;;;5073884;28;20037;-69
2022/01/17 02:11:16;;;;;;;5.78;1.23;;;-1.60;99.90;;;;;;5074057;28;20025;-69
2022/01/17 02:13:42;;;;;;;1.67;1.10;;;-1.60;99.90;;;;;;5073682;28;20017;-69
2022/01/17 02:16:11;;;;;;;4.40;1.80;;;-1.50;99.90;;;;;;5073748;28;20526;-69
2022/01/17 02:18:38;;;;;;;2.83;1.33;;;-1.50;99.90;;;;;;5073692;28;20016;-69
2022/01/17 02:23:36;;;;;;;4.03;1.42;;;-1.50;99.90;;;;;;5073613;28;20104;-69
2022/01/17 02:55:06;;;;;;;5.25;1.20;;;-1.50;97.90;;;;;;5072808;28;20761;-69
2022/01/17 02:57:33;;;;;;;4.07;1.20;;;-1.50;97.90;;;;;;5072822;28;20028;-69
2022/01/17 02:59:59;;;;;;;3.55;1.00;;;-1.50;97.70;;;;;;5072588;28;20028;-69
2022/01/17 03:02:25;;;;;;;4.95;1.00;;;-1.50;97.00;;;;;;5072873;28;20031;-69
2022/01/17 03:36:49;;;;;;;5.57;0.90;;;-1.40;95.60;;;;;;6014041;22;20400;-68
2022/01/17 03:39:15;;;;;;;1.10;0.95;;;-1.40;95.20;;;;;;5050222;28;20064;-68
2022/01/17 03:41:40;;;;;;;2.47;1.17;;;-1.40;94.90;;;;;;5052354;28;20025;-68
2022/01/17 03:44:07;;;;;;;2.17;1.00;;;-1.40;94.80;;;;;;5052034;28;20029;-68
2022/01/17 03:46:34;;;;;;;0.88;0.80;;;-1.40;94.40;;;;;;5051813;28;20438;-68
2022/01/17 03:49:00;;;;;;;3.78;1.10;;;-1.40;93.80;;;;;;5068708;28;20036;-68
2022/01/17 03:51:26;;;;;;;0.95;0.80;;;-1.40;93.50;;;;;;5072456;28;20471;-67
2022/01/17 03:53:52;;;;;;;3.40;0.80;;;-1.40;93.30;;;;;;5072128;28;20024;-68
2022/01/17 03:56:18;;;;;;;2.40;0.80;;;-1.40;92.70;;;;;;5071960;28;20021;-68
2022/01/17 03:58:45;;;;;;;2.47;1.15;;;-1.40;92.60;;;;;;5071960;28;20029;-68
2022/01/17 04:01:11;;;;;;;4.60;1.00;;;-1.40;92.40;;;;;;5071819;28;20021;-68
2022/01/17 04:03:38;;;;;;;1.42;1.02;;;-1.40;92.30;;;;;;5071937;28;20025;-68
2022/01/17 04:06:04;;;;;;;0.80;0.70;;;-1.40;91.70;;;;;;5071865;28;20025;-68
2022/01/17 04:08:30;;;;;;;1.35;0.98;;;-1.40;91.70;;;;;;5071860;28;20516;-68
2022/01/17 04:10:56;;;;;;;1.20;0.77;;;-1.40;91.80;;;;;;5072000;28;20035;-68
2022/01/17 04:13:22;;;;;;;3.33;0.88;;;-1.30;91.80;;;;;;5071697;28;20096;-68
2022/01/17 04:15:48;;;;;;;1.55;0.80;;;-1.30;91.80;;;;;;5071856;28;20029;-68
2022/01/17 04:18:15;;;;;;;2.67;0.95;;;-1.30;91.70;;;;;;5071644;28;20020;-68
2022/01/17 04:20:42;;;;;;;1.30;0.98;;;-1.30;91.40;;;;;;5071883;28;20052;-68
2022/01/17 04:23:11;;;;;;;2.30;0.90;;;-1.30;91.00;;;;;;5071963;28;20029;-68
2022/01/17 04:25:38;;;;;;;1.58;0.80;;;-1.30;90.70;;;;;;5071813;28;20475;-68
2022/01/17 04:28:06;;;;;;;1.75;0.90;;;-1.30;90.50;;;;;;5071607;28;20097;-68
2022/01/17 04:30:32;;;;;;;1.35;0.82;;;-1.30;90.80;;;;;;5070641;28;20423;-68
2022/01/17 04:32:59;;;;;;;0.90;0.80;;;-1.30;90.50;;;;;;5071772;28;20020;-68
2022/01/17 04:35:26;;;;;;;0.80;0.80;;;-1.30;90.50;;;;;;5070423;28;20075;-68
2022/01/17 04:37:58;;;;;;;1.45;0.85;;;-1.30;90.30;;;;;;5071351;28;20040;-68
2022/01/17 04:40:25;;;;;;;1.15;0.82;;;-1.30;90.10;;;;;;5071587;28;20032;-68
2022/01/17 04:42:54;;;;;;;0.90;0.80;;;-1.30;89.90;;;;;;5071828;28;20024;-68
2022/01/17 04:45:20;;;;;;;0.70;0.70;;;-1.30;90.00;;;;;;5071482;28;20105;-68
2022/01/17 04:47:49;;;;;;;1.10;0.98;;;-1.30;90.00;;;;;;5071347;28;20016;-68
2022/01/17 04:50:21;;;;;;;2.30;0.80;;;-1.30;90.00;;;;;;5071311;28;20028;-66
2022/01/17 04:52:48;;;;;;;2.78;0.80;;;-1.30;90.10;;;;;;5071470;28;20020;-65
2022/01/17 04:55:16;;;;;;;3.15;0.80;;;-1.30;89.60;;;;;;5071198;28;20028;-65
2022/01/17 04:57:43;;;;;;;1.23;0.90;;;-1.30;89.70;;;;;;5072097;28;20476;-65
2022/01/17 05:00:11;;;;;;;2.03;0.93;;;-1.30;89.40;;;;;;5073605;28;20059;-67
2022/01/17 05:02:37;;;;;;;0.63;0.60;;;-1.30;89.60;;;;;;5075392;28;20086;-66
2022/01/17 05:05:04;;;;;;;1.15;0.60;;;-1.30;89.80;;;;;;5075161;28;20417;-66
2022/01/17 05:07:32;;;;;;;0.70;0.70;;;-1.40;90.00;;;;;;5074874;28;20028;-65
2022/01/17 05:09:58;;;;;;;2.75;0.90;;;-1.30;90.40;;;;;;5074687;28;20115;-65
2022/01/17 05:12:25;;;;;;;1.33;0.80;;;-1.40;89.30;;;;;;5073723;28;20052;-66
2022/01/17 05:14:52;;;;;;;0.80;0.80;;;-1.30;90.00;;;;;;5074896;28;20060;-66
2022/01/17 05:20:00;;;;;;;3.03;0.70;;;-1.40;90.00;;;;;;5075135;28;20494;-65
2022/01/17 05:22:31;;;;;;;1.95;0.88;;;-1.40;90.40;;;;;;5074521;28;20454;-65
2022/01/17 05:24:57;;;;;;;1.30;0.75;;;-1.40;90.60;;;;;;5075008;28;20383;-66
2022/01/17 05:27:23;;;;;;;1.75;1.00;;;-1.40;90.60;;;;;;5074279;28;20024;-65
2022/01/17 05:29:49;;;;;;;2.17;0.80;;;-1.40;90.80;;;;;;5074526;28;20127;-66
2022/01/17 05:32:15;;;;;;;0.77;0.77;;;-1.40;91.00;;;;;;5074612;28;20023;-65
2022/01/17 05:34:41;;;;;;;2.25;0.98;;;-1.50;90.10;;;;;;5074543;28;20028;-67
2022/01/17 05:37:13;;;;;;;1.35;0.70;;;-1.50;90.20;;;;;;5074314;28;20041;-66
2022/01/17 05:39:39;;;;;;;1.83;0.60;;;-1.50;90.10;;;;;;5074352;28;20494;-69
2022/01/17 05:42:05;;;;;;;2.00;0.80;;;-1.50;90.40;;;;;;5074067;28;20064;-68
2022/01/17 05:44:31;;;;;;;2.03;0.82;;;-1.50;90.40;;;;;;5074425;28;20360;-70
2022/01/17 05:46:57;;;;;;;0.98;0.80;;;-1.10;99.40;;;;;;5074452;28;20379;-64
2022/01/17 05:49:23;;;;;;;0.70;0.70;;;-1.00;92.50;;;;;;5074287;28;20036;-70
2022/01/17 05:51:49;;;;;;;0.80;0.80;;;-1.20;91.80;;;;;;5073090;28;20473;-71
2022/01/17 05:54:16;;;;;;;3.60;1.00;;;-1.20;92.50;;;;;;5073411;28;20040;-71
2022/01/17 05:56:43;;;;;;;0.90;0.82;;;-1.30;92.90;;;;;;5068570;28;20059;-72
2022/01/17 05:59:09;;;;;;;1.55;0.70;;;-1.40;92.40;;;;;;5073009;28;20025;-69
2022/01/17 06:01:39;;;;;;;0.80;0.80;;;-1.40;93.00;;;;;;5070538;28;20032;-69
2022/01/17 06:04:05;;;;;;;3.72;0.82;;;-1.40;92.60;;;;;;5073136;28;20020;-67
2022/01/17 06:06:31;;;;;;;0.80;0.80;;;-1.40;93.30;;;;;;5073382;28;20021;-67
2022/01/17 06:08:57;;;;;;;1.30;0.75;;;-1.40;93.10;;;;;;5067450;28;20379;-65
2022/01/17 06:11:23;;;;;;;1.67;1.00;;;-1.40;93.20;;;;;;5072686;28;20024;-65
2022/01/17 06:13:48;;;;;;;2.50;1.00;;;-1.40;92.30;;;;;;5070364;28;20028;-65
2022/01/17 06:16:14;;;;;;;6.45;1.15;;;-1.40;92.40;;;;;;5071735;28;20020;-66
2022/01/17 06:18:40;;;;;;;3.30;1.10;;;-1.50;92.30;;;;;;5071752;28;20048;-65
2022/01/17 06:21:05;;;;;;;1.00;0.63;;;-1.50;92.20;;;;;;5073106;28;20467;-66
2022/01/17 06:23:31;;;;;;;5.32;1.45;;;-1.50;92.40;;;;;;5073542;28;20078;-71
2022/01/17 06:25:57;;;;;;;2.45;1.00;;;-1.60;92.10;;;;;;5073495;28;20479;-70
2022/01/17 06:28:23;;;;;;;1.88;0.90;;;-1.70;92.20;;;;;;5073343;28;20024;-70
2022/01/17 06:30:50;;;;;;;4.25;0.90;;;-1.60;99.90;;;;;;5073774;28;20112;-71
2022/01/17 06:33:16;;;;;;;0.90;0.90;;;-0.60;99.90;;;;;;5073237;28;20074;-71
2022/01/17 06:35:41;;;;;;;2.63;0.80;;;0.30;99.90;;;;;;5073647;28;20020;-72
2022/01/17 06:38:08;;;;;;;2.47;0.90;;;1.00;99.90;;;;;;5073005;28;20102;-71
2022/01/17 06:40:34;;;;;;;2.97;1.15;;;1.50;99.90;;;;;;5073327;28;20035;-71
2022/01/17 06:42:59;;;;;;;2.47;0.90;;;1.80;99.90;;;;;;5073038;28;20024;-72
2022/01/17 06:45:25;;;;;;;1.98;1.10;;;2.00;99.90;;;;;;5072950;28;20475;-72
2022/01/17 06:47:51;;;;;;;1.80;0.85;;;2.20;99.90;;;;;;5073021;28;20036;-70
2022/01/17 06:50:17;;;;;;;3.13;1.00;;;2.40;99.90;;;;;;5072713;28;20406;-72
2022/01/17 06:52:44;;;;;;;0.93;0.93;;;2.60;99.90;;;;;;5073002;28;20013;-72
2022/01/17 06:55:10;;;;;;;2.45;1.10;;;2.70;99.90;;;;;;5072705;28;20040;-72
2022/01/17 06:57:36;;;;;;;1.83;0.90;;;2.70;99.90;;;;;;5071624;28;20023;-71
2022/01/17 07:00:10;;;;;;;1.95;1.10;;;2.80;99.90;;;;;;5072773;28;20035;-72
2022/01/17 07:02:36;;;;;;;2.97;0.80;;;3.00;99.90;;;;;;5072958;28;20028;-72
2022/01/17 07:05:02;;;;;;;1.52;0.90;;;3.10;99.90;;;;;;5072719;28;20036;-72
2022/01/17 07:07:28;;;;;;;1.13;0.70;;;3.10;99.90;;;;;;5072599;28;20016;-72
2022/01/17 07:09:54;;;;;;;2.40;1.10;;;3.10;99.90;;;;;;5072422;28;20038;-72
2022/01/17 07:12:19;;;;;;;6.18;1.20;;;3.20;99.90;;;;;;5072738;28;20025;-71
2022/01/17 07:14:45;;;;;;;4.00;1.05;;;3.80;99.90;;;;;;5072592;28;20056;-68
2022/01/17 07:17:12;;;;;;;2.03;0.98;;;4.10;99.90;;;;;;5072429;28;20029;-68
2022/01/17 07:19:38;;;;;;;5.88;1.10;;;3.60;91.50;;;;;;5072578;28;20483;-70
2022/01/17 07:22:07;;;;;;;1.45;0.90;;;2.40;81.10;;;;;;5071268;28;20029;-68
2022/01/17 07:24:34;;;;;;;4.03;1.10;;;1.40;81.50;;;;;;5072507;28;20078;-68
2022/01/17 07:27:00;;;;;;;4.72;1.20;;;0.70;83.40;;;;;;5072640;28;20500;-67
2022/01/17 07:29:26;;;;;;;2.42;0.93;;;0.30;84.90;;;;;;5072455;28;20119;-68
2022/01/17 07:31:53;;;;;;;2.92;0.95;;;0.20;86.80;;;;;;5072397;28;20031;-70
2022/01/17 07:34:19;;;;;;;4.25;1.08;;;0.00;87.00;;;;;;5072188;28;20028;-69
2022/01/17 07:36:45;;;;;;;1.02;0.90;;;-0.10;86.90;;;;;;5072174;28;20035;-69
2022/01/17 07:39:11;;;;;;;4.38;1.42;;;-0.30;87.60;;;;;;5072137;28;20086;-68
2022/01/17 07:41:37;;;;;;;2.03;1.10;;;-0.30;88.40;;;;;;5072420;28;20036;-67
2022/01/17 07:44:04;;;;;;;3.45;1.20;;;-0.40;88.20;;;;;;5072043;28;20363;-68
2022/01/17 07:49:12;;;;;;;2.15;0.90;;;-0.70;87.10;;;;;;5071853;28;20049;-68
2022/01/17 07:51:42;;;;;;;4.10;1.08;;;-0.80;95.70;;;;;;5071977;28;20051;-68
2022/01/17 07:54:10;;;;;;;1.83;1.10;;;-0.70;91.10;;;;;;5072026;28;20383;-68
2022/01/17 07:56:36;;;;;;;1.80;1.00;;;-1.00;89.70;;;;;;5072034;28;20053;-68
2022/01/17 07:59:03;;;;;;;4.03;1.20;;;-1.10;89.50;;;;;;5071867;28;20100;-68
2022/01/17 08:01:29;;;;;;;3.45;0.88;;;-1.30;89.50;;;;;;5071689;28;20024;-68
2022/01/17 08:03:54;;;;;;;1.98;1.00;;;-1.40;89.20;;;;;;5071173;28;20103;-64
2022/01/17 08:06:20;;;;;;;4.80;1.80;;;-1.50;89.60;;;;;;5071231;28;20468;-64
2022/01/17 08:08:47;;;;;;;1.55;1.05;;;-1.50;91.40;;;;;;5071774;28;20025;-64
2022/01/17 08:11:14;;;;;;;3.38;0.73;;;-1.40;98.10;;;;;;5071861;28;20029;-64
2022/01/17 08:13:39;;;;;;;3.20;1.20;;;-1.10;97.90;;;;;;5071650;28;20043;-64
2022/01/17 08:16:05;;;;;;;1.60;0.90;;;-1.00;96.50;;;;;;5071847;28;20032;-66
2022/01/17 08:18:31;;;;;;;2.95;0.90;;;-1.20;92.10;;;;;;5071719;28;20356;-66
2022/01/17 08:20:58;;;;;;;0.85;0.85;;;-1.30;91.60;;;;;;5072034;28;20147;-66
2022/01/17 08:23:24;;;;;;;1.02;0.90;;;-1.50;91.00;;;;;;5071652;28;20170;-66
2022/01/17 08:25:49;;;;;;;2.70;1.10;;;-1.60;91.30;;;;;;5071744;28;20025;-66
2022/01/17 08:28:15;;;;;;;2.80;0.85;;;-1.70;91.40;;;;;;5071319;28;20383;-69
2022/01/17 08:30:42;;;;;;;4.03;1.20;;;-1.70;91.50;;;;;;5071772;28;20043;-69
2022/01/17 08:33:07;;;;;;;1.15;0.90;;;-1.80;91.20;;;;;;5073106;28;20166;-69
2022/01/17 08:35:33;;;;;;;1.27;0.90;;;-1.90;91.50;;;;;;5075467;28;20574;-69
2022/01/17 08:37:59;;;;;;;3.30;0.90;;;-1.60;99.90;;;;;;5075334;28;20076;-69
2022/01/17 08:40:26;;;;;;;3.13;0.98;;;-1.00;99.90;;;;;;5075384;28;20024;-69
2022/01/17 08:42:52;;;;;;;1.42;0.90;;;-0.80;99.90;;;;;;5075596;28;20017;-70
2022/01/17 08:45:21;;;;;;;2.38;0.95;;;-0.80;99.90;;;;;;5074986;28;20067;-68
2022/01/17 08:47:49;;;;;;;1.65;1.05;;;-1.00;95.30;;;;;;5072238;28;20037;-65
2022/01/17 08:50:17;;;;;;;1.75;0.80;;;-1.10;94.10;;;;;;5074696;28;20072;-65
2022/01/17 08:52:47;;;;;;;1.73;1.00;;;-1.20;94.00;;;;;;5074630;28;20012;-65
2022/01/17 08:55:13;;;;;;;6.07;1.30;;;-1.30;93.70;;;;;;5075459;28;20032;-65
2022/01/17 08:57:39;;;;;;;2.40;1.15;;;-1.30;94.00;;;;;;5074552;28;21006;-65
2022/01/17 09:00:08;;;;;;;2.78;0.80;;;-1.30;93.90;;;;;;5071391;28;20095;-65
2022/01/17 09:02:34;;;;;;;2.58;1.00;;;-1.30;94.00;;;;;;5071095;28;20034;-65
2022/01/17 09:04:59;;;;;;;3.42;1.10;;;-1.40;93.40;;;;;;5071236;28;20104;-64
2022/01/17 09:07:25;;;;;;;1.33;0.80;;;-1.40;93.50;;;;;;5073853;28;20096;-65
2022/01/17 09:09:51;;;;;;;2.40;1.05;;;-1.30;93.70;;;;;;5074832;28;20385;-65
2022/01/17 09:12:16;;;;;;;2.38;0.80;;;-1.30;94.00;;;;;;5074327;28;20055;-65
2022/01/17 09:14:42;;;;;;;3.83;0.80;;;-1.30;93.80;;;;;;5071508;28;20391;-66
2022/01/17 09:17:10;;;;;;;3.70;1.45;;;-1.30;93.50;;;;;;5067677;28;20013;-65
2022/01/17 09:19:37;;;;;;;2.10;0.82;;;-1.30;93.50;;;;;;5063296;28;20052;-65
2022/01/17 09:22:05;;;;;;;5.85;1.92;;;-1.40;93.30;;;;;;5054477;28;20467;-66
2022/01/17 09:24:31;;;;;;;4.70;1.48;;;-1.40;93.40;;;;;;5054546;28;20057;-70
2022/01/17 09:26:57;;;;;;;2.03;1.02;;;-1.40;93.60;;;;;;5054679;28;20032;-67
2022/01/17 09:29:23;;;;;;;1.70;1.10;;;-1.40;93.40;;;;;;5054523;28;20037;-68
2022/01/17 09:31:48;;;;;;;2.72;1.20;;;-1.40;93.10;;;;;;5054649;28;20214;-67
2022/01/17 09:34:14;;;;;;;1.85;1.00;;;-1.30;99.90;;;;;;5054873;28;20025;-68
2022/01/17 09:36:40;;;;;;;1.63;1.40;;;-1.20;96.80;;;;;;5054270;28;20399;-69
2022/01/17 09:39:07;;;;;;;3.25;1.30;;;-1.30;94.70;;;;;;5054651;28;20033;-68
2022/01/17 09:41:33;;;;;;;3.35;1.08;;;-1.30;94.00;;;;;;5054401;28;20479;-68
2022/01/17 09:44:01;;;;;;;3.08;1.60;;;-1.30;93.90;;;;;;5053800;28;20029;-66
2022/01/17 09:46:33;;;;;;;2.90;1.15;;;-1.30;94.20;;;;;;5054015;28;20025;-66
2022/01/17 09:49:13;;;;;;;3.78;1.40;;;-1.20;97.30;;;;;;5054252;28;20041;-67
2022/01/17 09:54:44;;;;;;;47.85;18.42;;;-0.80;99.90;;;;;;5057260;28;20373;-67
2022/01/17 09:57:11;;;;;;;54.08;21.08;;;-0.90;98.70;;;;;;5054807;28;20028;-67
2022/01/17 09:59:40;;;;;;;84.57;29.10;;;-0.80;99.90;;;;;;5054328;28;20434;-66
2022/01/17 10:02:06;;;;;;;72.03;21.52;;;-0.70;99.90;;;;;;5054162;28;20029;-66
2022/01/17 10:04:33;;;;;;;11.05;5.30;;;-0.70;99.90;;;;;;5053923;28;20488;-66
2022/01/17 10:07:01;;;;;;;39.47;15.77;;;-0.60;99.90;;;;;;5053955;28;20029;-65
2022/01/17 10:09:28;;;;;;;30.38;13.43;;;-0.70;97.10;;;;;;5053727;28;20071;-65
2022/01/17 10:12:04;;;;;;;6.03;3.47;;;-0.80;96.00;;;;;;5053795;28;20017;-65
2022/01/17 10:14:36;;;;;;;7.95;3.78;;;-0.90;95.10;;;;;;5053940;28;20056;-65
2022/01/17 10:17:10;;;;;;;2.63;1.65;;;-0.90;94.60;;;;;;5053928;28;20021;-66
2022/01/17 10:19:37;;;;;;;3.40;1.80;;;-0.90;94.20;;;;;;5062414;28;20036;-66
2022/01/17 10:22:11;;;;;;;2.40;1.40;;;-0.90;93.70;;;;;;5067431;28;20570;-65
2022/01/17 10:25:05;;;;;;;3.25;1.00;;;-1.00;93.40;;;;;;5064408;28;20513;-65
2022/01/17 10:35:59;;;;;;;3.78;1.42;;;-0.50;99.90;;;;;;5070215;28;20059;-68
2022/01/17 10:38:27;;;;;;;3.97;1.45;;;-0.60;98.80;;;;;;5070192;28;20074;-65
2022/01/17 10:40:59;;;;;;;0.90;0.90;;;-0.70;97.00;;;;;;5072105;28;20035;-65
2022/01/17 10:43:27;;;;;;;1.88;1.10;;;-0.80;94.10;;;;;;5073207;28;20035;-67
2022/01/17 10:45:55;;;;;;;0.90;0.90;;;-0.90;93.20;;;;;;5064529;28;20027;-66
2022/01/17 10:48:28;;;;;;;1.77;1.10;;;-1.00;93.20;;;;;;5071849;28;20025;-66
2022/01/17 10:50:54;;;;;;;2.83;1.30;;;-1.10;92.80;;;;;;5073030;28;20119;-68
2022/01/17 10:53:20;;;;;;;1.50;0.82;;;-1.20;92.50;;;;;;5073065;28;20024;-68
2022/01/17 10:55:49;;;;;;;2.28;0.90;;;-1.20;92.70;;;;;;5072733;28;20020;-68
2022/01/17 10:58:23;;;;;;;1.25;0.90;;;-1.20;92.70;;;;;;5073075;28;20108;-67
2022/01/17 11:00:52;;;;;;;1.02;0.82;;;-1.20;92.50;;;;;;5073042;28;20107;-67
2022/01/17 11:03:26;;;;;;;1.33;0.95;;;-1.20;92.10;;;;;;5072916;28;20017;-65
2022/01/17 11:05:54;;;;;;;1.35;0.85;;;-1.20;92.30;;;;;;5072851;28;20031;-64
2022/01/17 11:08:23;;;;;;;2.25;1.00;;;-1.30;92.20;;;;;;5071208;28;20020;-64
2022/01/17 11:10:53;;;;;;;1.97;0.90;;;-1.30;92.00;;;;;;5061758;28;20451;-64
2022/01/17 11:13:24;;;;;;;2.17;1.00;;;-1.30;92.10;;;;;;5073025;28;20051;-64
2022/01/17 11:15:55;;;;;;;2.20;1.00;;;-1.30;92.20;;;;;;5072673;28;20032;-64
2022/01/17 11:18:24;;;;;;;3.20;0.88;;;-1.30;92.20;;;;;;5072599;28;20073;-64
2022/01/17 11:20:59;;;;;;;4.53;1.23;;;-1.30;92.60;;;;;;5072822;28;20033;-64
2022/01/17 11:23:27;;;;;;;1.60;1.00;;;-1.30;92.60;;;;;;5072387;28;20383;-63
2022/01/17 11:25:55;;;;;;;2.30;0.95;;;-1.30;92.40;;;;;;5072705;28;20021;-64
2022/01/17 11:28:23;;;;;;;1.13;0.88;;;-1.30;92.60;;;;;;5072235;28;20016;-72
2022/01/17 11:30:53;;;;;;;1.38;0.90;;;-1.20;92.90;;;;;;5072320;28;20383;-73
2022/01/17 11:33:19;;;;;;;2.03;1.08;;;-1.20;92.80;;;;;;5072981;28;20153;-86
2022/01/17 11:35:51;;;;;;;1.13;0.70;;;-1.20;92.70;;;;;;5072689;28;20036;-88
2022/01/17 11:38:29;;;;;;;2.83;1.00;;;-1.20;92.70;;;;;;5072386;28;20399;-77
2022/01/17 11:40:56;;;;;;;2.88;0.80;;;-1.20;92.70;;;;;;5072367;28;20075;-75
2022/01/17 11:43:35;;;;;;;2.47;1.00;;;-1.20;92.70;;;;;;5072443;28;20518;-77
2022/01/17 11:46:16;;;;;;;2.08;1.15;;;-1.20;92.90;;;;;;5072523;28;20081;-70
2022/01/17 11:48:55;;;;;;;1.30;1.00;;;2.20;99.90;;;;;;5072030;28;20028;-68
2022/01/17 11:51:21;;;;;;;2.38;0.98;;;2.60;96.50;;;;;;5072103;28;20032;-70
2022/01/17 11:53:53;;;;;;;3.00;0.93;;;1.50;86.80;;;;;;5056258;28;20361;-69
2022/01/17 11:56:39;;;;;;;1.40;0.70;;;0.60;86.50;;;;;;5052253;28;20017;-70
2022/01/17 11:59:34;;;;;;;1.52;0.90;;;0.00;90.40;;;;;;5051982;28;20031;-72
2022/01/17 12:02:21;;;;;;;1.73;0.90;;;-0.20;94.90;;;;;;5051886;28;20123;-74
2022/01/17 12:05:03;;;;;;;2.58;0.80;;;-0.30;93.10;;;;;;5056877;28;20020;-67
2022/01/17 12:07:39;;;;;;;2.10;1.10;;;-0.40;92.00;;;;;;5051348;28;20033;-67
2022/01/17 12:10:10;;;;;;;5.47;0.90;;;1.70;99.90;;;;;;5051955;28;20384;-66
2022/01/17 12:12:37;;;;;;;1.00;0.90;;;2.60;99.90;;;;;;5051695;28;20036;-66
2022/01/17 12:15:10;;;;;;;2.30;0.90;;;2.20;93.00;;;;;;5051752;28;20060;-66
2022/01/17 12:17:37;;;;;;;0.93;0.80;;;1.20;88.20;;;;;;5051604;28;20472;-66
2022/01/17 12:20:13;;;;;;;3.63;0.90;;;0.40;89.00;;;;;;5051663;28;20032;-66
2022/01/17 12:22:39;;;;;;;0.98;0.88;;;-0.10;90.40;;;;;;5051669;28;20056;-66
2022/01/17 12:25:30;;;;;;;0.80;0.80;;;-0.40;91.10;;;;;;5051781;28;20063;-66
2022/01/17 12:28:04;;;;;;;1.38;0.85;;;-0.60;91.40;;;;;;5044517;28;20120;-66
2022/01/17 12:30:55;;;;;;;0.82;0.70;;;-0.70;92.10;;;;;;5051655;28;20138;-66
2022/01/17 12:33:40;;;;;;;0.75;0.70;;;-0.80;92.20;;;;;;5051625;28;20021;-66
2022/01/17 12:36:28;;;;;;;1.73;0.80;;;-0.90;92.60;;;;;;5051773;28;20453;-66
2022/01/17 12:39:13;;;;;;;3.17;0.88;;;-1.00;93.00;;;;;;5051372;28;20041;-66
2022/01/17 12:41:44;;;;;;;1.48;0.90;;;-1.10;93.40;;;;;;5051467;28;20443;-66
2022/01/17 12:44:29;;;;;;;4.43;1.00;;;-1.10;93.80;;;;;;5051807;28;20021;-66
2022/01/17 12:46:58;;;;;;;2.53;0.80;;;-1.20;94.00;;;;;;5051516;28;20025;-66
2022/01/17 12:49:25;;;;;;;4.70;1.05;;;-1.20;94.10;;;;;;5051432;28;20112;-66
2022/01/17 12:51:52;;;;;;;1.50;0.90;;;-1.20;94.30;;;;;;5051305;28;20024;-66
2022/01/17 12:54:21;;;;;;;1.02;0.73;;;-1.30;94.40;;;;;;5051361;28;20361;-66
2022/01/17 12:56:49;;;;;;;0.98;0.90;;;-1.30;94.50;;;;;;5051382;28;20029;-66
2022/01/17 12:59:17;;;;;;;3.03;1.00;;;-1.30;94.80;;;;;;5051265;28;20392;-66
2022/01/17 13:01:45;;;;;;;0.98;0.90;;;-1.30;94.80;;;;;;5051207;28;20049;-68
2022/01/17 13:04:12;;;;;;;1.00;0.80;;;-0.70;99.90;;;;;;5051240;28;20043;-66
2022/01/17 13:06:40;;;;;;;1.45;1.17;;;0.00;99.90;;;;;;5057820;28;20032;-66
2022/01/17 13:09:14;;;;;;;3.35;1.13;;;-0.20;97.50;;;;;;5065638;28;20028;-65
2022/01/17 13:11:42;;;;;;;1.25;0.95;;;-0.50;95.90;;;;;;5060605;28;20082;-70
2022/01/17 13:14:09;;;;;;;3.00;0.93;;;-0.60;95.70;;;;;;5061788;28;20100;-69
2022/01/17 13:16:36;;;;;;;3.75;0.98;;;-0.80;95.90;;;;;;5061151;28;20376;-70
2022/01/17 13:19:09;;;;;;;0.80;0.80;;;0.00;99.90;;;;;;5063814;28;20024;-70
2022/01/17 13:21:38;;;;;;;7.57;1.13;;;0.40;99.90;;;;;;5068975;28;20036;-70
2022/01/17 13:24:33;;;;;;;2.30;1.05;;;0.10;96.50;;;;;;5064380;28;20020;-71
2022/01/17 13:27:12;;;;;;;0.80;0.80;;;-0.30;95.70;;;;;;5074650;28;20076;-68
2022/01/17 13:29:43;;;;;;;1.05;0.80;;;-0.50;95.90;;;;;;5074926;28;20029;-68
2022/01/17 13:32:12;;;;;;;2.63;1.33;;;-0.60;96.30;;;;;;5075053;28;20077;-69
2022/01/17 13:34:39;;;;;;;3.33;0.90;;;-0.70;96.20;;;;;;5074532;28;20072;-68
2022/01/17 13:37:06;;;;;;;2.53;1.10;;;-0.80;96.60;;;;;;5074651;28;20123;-68
2022/01/17 13:39:32;;;;;;;1.60;1.20;;;-0.60;99.90;;;;;;5074471;28;20024;-69
2022/01/17 13:42:00;;;;;;;1.83;0.90;;;-0.70;98.30;;;;;;5074912;28;20107;-68
2022/01/17 13:44:32;;;;;;;1.85;1.00;;;-0.80;97.30;;;;;;5074412;28;20496;-68
2022/01/17 13:47:06;;;;;;;1.45;0.85;;;-1.00;97.20;;;;;;5074516;28;20039;-68
2022/01/17 13:49:35;;;;;;;1.35;0.85;;;-1.10;97.70;;;;;;5074292;28;20036;-67
2022/01/17 13:52:03;;;;;;;2.00;0.90;;;-1.10;99.40;;;;;;5074512;28;20074;-67
2022/01/17 13:54:35;;;;;;;2.42;1.02;;;-1.10;98.30;;;;;;5074319;28;20131;-70
2022/01/17 13:57:09;;;;;;;1.52;0.90;;;-1.20;98.00;;;;;;5074630;28;20024;-70
2022/01/17 13:59:35;;;;;;;2.38;0.80;;;-1.30;97.90;;;;;;5075840;28;20024;-70
2022/01/17 14:02:01;;;;;;;1.02;0.90;;;-1.30;98.00;;;;;;5073501;28;20149;-70
2022/01/17 14:04:30;;;;;;;1.25;1.10;;;-1.40;98.10;;;;;;5074093;28;20033;-70
2022/01/17 14:06:59;;;;;;;1.98;1.05;;;-1.40;98.20;;;;;;5059632;28;20020;-70
2022/01/17 14:09:30;;;;;;;1.00;0.80;;;-1.40;98.20;;;;;;5074257;28;20470;-70
2022/01/17 14:11:56;;;;;;;1.45;0.95;;;-1.50;98.00;;;;;;5074259;28;20020;-70
2022/01/17 14:14:25;;;;;;;1.02;0.88;;;-1.50;98.00;;;;;;5067694;28;20473;-70
2022/01/17 14:16:51;;;;;;;1.30;0.98;;;-1.50;98.00;;;;;;5053629;28;20035;-70
2022/01/17 14:19:17;;;;;;;5.40;1.10;;;-1.50;98.00;;;;;;5067811;28;20403;-70
2022/01/17 14:21:59;;;;;;;1.63;0.80;;;-1.50;97.90;;;;;;5073468;28;20032;-70
2022/01/17 14:24:27;;;;;;;1.10;0.95;;;-1.60;97.70;;;;;;5071713;28;20019;-69
2022/01/17 14:26:55;;;;;;;1.67;0.98;;;-1.50;97.80;;;;;;5073229;28;20055;-70
2022/01/17 14:29:24;;;;;;;1.38;1.00;;;-1.50;97.70;;;;;;5073568;28;20024;-71